sensor_id;sensor_type;location;lat;lon;timestamp;pressure;altitude;pressure_sealevel;temperature;humidity
45403;BME280;47427;51.976;5.326;2023-10-08T00:01:05;102201.38;;;17.16;100.00
45403;BME280;47427;51.976;5.326;2023-10-08T00:04:09;102214.50;;;17.09;100.00
45403;BME280;47427;51.976;5.326;2023-10-08T00:07:21;102200.88;;;16.93;100.00
45403;BME280;47427;51.976;5.326;2023-10-08T00:10:24;102209.72;;;16.93;100.00
45403;BME280;47427;51.976;5.326;2023-10-08T00:13:29;102220.31;;;16.93;100.00
45403;BME280;47427;51.976;5.326;2023-10-08T00:16:32;102232.69;;;16.93;100.00
45403;BME280;47427;51.976;5.326;2023-10-08T00:19:36;102244.00;;;16.85;100.00
45403;BME280;47427;51.976;5.326;2023-10-08T00:22:39;102242.19;;;16.81;100.00
45403;BME280;47427;51.976;5.326;2023-10-08T00:25:42;102232.41;;;16.79;100.00
45403;BME280;47427;51.976;5.326;2023-10-08T00:28:47;102241.44;;;16.88;100.00
45403;BME280;47427;51.976;5.326;2023-10-08T00:31:50;102243.41;;;16.97;100.00
45403;BME280;47427;51.976;5.326;2023-10-08T00:34:52;102245.28;;;17.03;100.00
45403;BME280;47427;51.976;5.326;2023-10-08T00:37:53;102240.88;;;17.03;100.00
45403;BME280;47427;51.976;5.326;2023-10-08T00:40:56;102226.91;;;17.10;100.00
45403;BME280;47427;51.976;5.326;2023-10-08T00:44:00;102234.97;;;17.15;100.00
45403;BME280;47427;51.976;5.326;2023-10-08T00:47:04;102230.50;;;17.14;100.00
45403;BME280;47427;51.976;5.326;2023-10-08T00:50:07;102228.75;;;17.15;100.00
45403;BME280;47427;51.976;5.326;2023-10-08T00:53:11;102224.41;;;17.17;100.00
45403;BME280;47427;51.976;5.326;2023-10-08T00:56:22;102227.16;;;17.23;100.00
45403;BME280;47427;51.976;5.326;2023-10-08T00:59:26;102221.91;;;17.26;100.00
45403;BME280;47427;51.976;5.326;2023-10-08T01:02:31;102212.28;;;17.29;100.00
45403;BME280;47427;51.976;5.326;2023-10-08T01:05:50;102185.75;;;17.29;100.00
45403;BME280;47427;51.976;5.326;2023-10-08T01:08:53;102189.28;;;17.30;100.00
45403;BME280;47427;51.976;5.326;2023-10-08T01:12:22;102203.38;;;17.27;100.00
45403;BME280;47427;51.976;5.326;2023-10-08T01:15:30;102206.09;;;17.30;100.00
45403;BME280;47427;51.976;5.326;2023-10-08T01:18:32;102215.81;;;17.30;100.00
45403;BME280;47427;51.976;5.326;2023-10-08T01:21:36;102206.97;;;17.31;100.00
45403;BME280;47427;51.976;5.326;2023-10-08T01:24:41;102204.31;;;17.31;100.00
45403;BME280;47427;51.976;5.326;2023-10-08T01:27:44;102200.78;;;17.30;100.00
45403;BME280;47427;51.976;5.326;2023-10-08T01:30:46;102209.63;;;17.31;100.00
45403;BME280;47427;51.976;5.326;2023-10-08T01:33:49;102199.00;;;17.29;100.00
45403;BME280;47427;51.976;5.326;2023-10-08T01:36:59;102205.16;;;17.28;100.00
45403;BME280;47427;51.976;5.326;2023-10-08T01:40:06;102212.22;;;17.28;100.00
45403;BME280;47427;51.976;5.326;2023-10-08T01:43:09;102209.53;;;17.26;100.00
45403;BME280;47427;51.976;5.326;2023-10-08T01:46:14;102210.41;;;17.25;100.00
45403;BME280;47427;51.976;5.326;2023-10-08T01:49:18;102210.50;;;17.30;100.00
45403;BME280;47427;51.976;5.326;2023-10-08T01:52:24;102212.19;;;17.26;100.00
45403;BME280;47427;51.976;5.326;2023-10-08T01:55:26;102235.22;;;17.27;100.00
45403;BME280;47427;51.976;5.326;2023-10-08T01:58:30;102239.63;;;17.27;100.00
45403;BME280;47427;51.976;5.326;2023-10-08T02:01:33;102238.69;;;17.25;100.00
45403;BME280;47427;51.976;5.326;2023-10-08T02:04:36;102244.78;;;17.19;100.00
45403;BME280;47427;51.976;5.326;2023-10-08T02:07:37;102243.84;;;17.19;100.00
45403;BME280;47427;51.976;5.326;2023-10-08T02:10:42;102250.91;;;17.17;100.00
45403;BME280;47427;51.976;5.326;2023-10-08T02:13:46;102252.66;;;17.16;100.00
45403;BME280;47427;51.976;5.326;2023-10-08T02:16:50;102271.19;;;17.15;100.00
45403;BME280;47427;51.976;5.326;2023-10-08T02:19:58;102259.78;;;17.19;100.00
45403;BME280;47427;51.976;5.326;2023-10-08T02:23:00;102272.97;;;17.16;100.00
45403;BME280;47427;51.976;5.326;2023-10-08T02:26:03;102263.16;;;17.11;100.00
45403;BME280;47427;51.976;5.326;2023-10-08T02:29:07;102270.25;;;17.13;100.00
45403;BME280;47427;51.976;5.326;2023-10-08T02:32:13;102263.19;;;17.13;100.00
45403;BME280;47427;51.976;5.326;2023-10-08T02:35:15;102272.03;;;17.14;100.00
45403;BME280;47427;51.976;5.326;2023-10-08T02:38:18;102232.13;;;17.07;100.00
45403;BME280;47427;51.976;5.326;2023-10-08T02:41:21;102259.66;;;17.13;100.00
45403;BME280;47427;51.976;5.326;2023-10-08T02:44:27;102250.00;;;17.16;100.00
45403;BME280;47427;51.976;5.326;2023-10-08T02:47:28;102270.31;;;17.16;100.00
45403;BME280;47427;51.976;5.326;2023-10-08T02:50:31;102258.88;;;17.18;100.00
45403;BME280;47427;51.976;5.326;2023-10-08T02:53:35;102235.94;;;17.20;100.00
45403;BME280;47427;51.976;5.326;2023-10-08T02:56:38;102251.84;;;17.20;100.00
45403;BME280;47427;51.976;5.326;2023-10-08T02:59:40;102281.03;;;17.20;100.00
45403;BME280;47427;51.976;5.326;2023-10-08T03:02:44;102271.31;;;17.21;100.00
45403;BME280;47427;51.976;5.326;2023-10-08T03:05:51;102258.00;;;17.18;100.00
45403;BME280;47427;51.976;5.326;2023-10-08T03:08:54;102261.59;;;17.20;100.00
45403;BME280;47427;51.976;5.326;2023-10-08T03:11:57;102248.38;;;17.23;100.00
45403;BME280;47427;51.976;5.326;2023-10-08T03:15:00;102250.16;;;17.24;100.00
45403;BME280;47427;51.976;5.326;2023-10-08T03:18:24;102276.66;;;17.22;100.00
45403;BME280;47427;51.976;5.326;2023-10-08T03:21:27;102283.75;;;17.22;100.00
45403;BME280;47427;51.976;5.326;2023-10-08T03:24:39;102293.41;;;17.20;100.00
45403;BME280;47427;51.976;5.326;2023-10-08T03:27:40;102279.22;;;17.18;100.00
45403;BME280;47427;51.976;5.326;2023-10-08T03:30:43;102270.31;;;17.16;100.00
45403;BME280;47427;51.976;5.326;2023-10-08T03:33:52;102257.84;;;17.11;100.00
45403;BME280;47427;51.976;5.326;2023-10-08T03:36:54;102266.63;;;17.07;100.00
45403;BME280;47427;51.976;5.326;2023-10-08T03:40:08;102265.72;;;17.07;100.00
45403;BME280;47427;51.976;5.326;2023-10-08T03:43:28;102262.06;;;17.02;100.00
45403;BME280;47427;51.976;5.326;2023-10-08T03:46:45;102267.41;;;17.03;100.00
45403;BME280;47427;51.976;5.326;2023-10-08T03:49:50;102285.13;;;17.04;100.00
45403;BME280;47427;51.976;5.326;2023-10-08T03:52:53;102296.59;;;17.05;100.00
45403;BME280;47427;51.976;5.326;2023-10-08T03:55:56;102312.47;;;17.02;100.00
45403;BME280;47427;51.976;5.326;2023-10-08T03:59:03;102320.41;;;17.02;100.00
45403;BME280;47427;51.976;5.326;2023-10-08T04:02:15;102315.94;;;17.01;100.00
45403;BME280;47427;51.976;5.326;2023-10-08T04:05:42;102327.44;;;17.01;100.00
45403;BME280;47427;51.976;5.326;2023-10-08T04:09:06;102325.91;;;17.09;100.00
45403;BME280;47427;51.976;5.326;2023-10-08T04:12:11;102321.41;;;17.07;100.00
45403;BME280;47427;51.976;5.326;2023-10-08T04:15:13;102321.25;;;17.01;100.00
45403;BME280;47427;51.976;5.326;2023-10-08T04:18:18;102353.91;;;16.98;100.00
45403;BME280;47427;51.976;5.326;2023-10-08T04:21:23;102344.16;;;16.97;100.00
45403;BME280;47427;51.976;5.326;2023-10-08T04:24:31;102351.00;;;16.87;100.00
45403;BME280;47427;51.976;5.326;2023-10-08T04:27:37;102336.66;;;16.79;100.00
45403;BME280;47427;51.976;5.326;2023-10-08T04:30:40;102340.16;;;16.78;100.00
45403;BME280;47427;51.976;5.326;2023-10-08T04:33:44;102335.56;;;16.71;100.00
45403;BME280;47427;51.976;5.326;2023-10-08T04:36:46;102342.69;;;16.74;100.00
45403;BME280;47427;51.976;5.326;2023-10-08T04:39:50;102342.63;;;16.72;100.00
45403;BME280;47427;51.976;5.326;2023-10-08T04:43:01;102345.22;;;16.71;100.00
45403;BME280;47427;51.976;5.326;2023-10-08T04:46:05;102342.50;;;16.67;100.00
45403;BME280;47427;51.976;5.326;2023-10-08T04:49:20;102334.56;;;16.67;100.00
45403;BME280;47427;51.976;5.326;2023-10-08T04:52:32;102316.84;;;16.65;100.00
45403;BME280;47427;51.976;5.326;2023-10-08T04:55:37;102314.13;;;16.63;100.00
45403;BME280;47427;51.976;5.326;2023-10-08T04:58:47;102330.09;;;16.65;100.00
45403;BME280;47427;51.976;5.326;2023-10-08T05:01:48;102329.34;;;16.71;100.00
45403;BME280;47427;51.976;5.326;2023-10-08T05:05:04;102342.56;;;16.69;100.00
45403;BME280;47427;51.976;5.326;2023-10-08T05:08:23;102346.03;;;16.66;100.00
45403;BME280;47427;51.976;5.326;2023-10-08T05:11:34;102338.97;;;16.67;100.00
45403;BME280;47427;51.976;5.326;2023-10-08T05:14:52;102357.06;;;16.83;100.00
45403;BME280;47427;51.976;5.326;2023-10-08T05:18:10;102353.50;;;16.81;100.00
45403;BME280;47427;51.976;5.326;2023-10-08T05:21:24;102345.50;;;16.80;100.00
45403;BME280;47427;51.976;5.326;2023-10-08T05:24:42;102331.16;;;16.72;100.00
45403;BME280;47427;51.976;5.326;2023-10-08T05:27:54;102353.19;;;16.71;100.00
45403;BME280;47427;51.976;5.326;2023-10-08T05:31:07;102353.03;;;16.64;100.00
45403;BME280;47427;51.976;5.326;2023-10-08T05:34:15;102340.63;;;16.62;100.00
45403;BME280;47427;51.976;5.326;2023-10-08T05:37:39;102359.22;;;16.65;100.00
45403;BME280;47427;51.976;5.326;2023-10-08T05:40:43;102362.75;;;16.64;100.00
45403;BME280;47427;51.976;5.326;2023-10-08T05:44:00;102376.69;;;16.57;100.00
45403;BME280;47427;51.976;5.326;2023-10-08T05:47:25;102366.09;;;16.57;100.00
45403;BME280;47427;51.976;5.326;2023-10-08T05:50:39;102368.06;;;16.65;100.00
45403;BME280;47427;51.976;5.326;2023-10-08T05:53:43;102366.50;;;16.72;100.00
45403;BME280;47427;51.976;5.326;2023-10-08T05:56:45;102376.44;;;16.81;100.00
45403;BME280;47427;51.976;5.326;2023-10-08T06:00:07;102380.97;;;16.85;100.00
45403;BME280;47427;51.976;5.326;2023-10-08T06:03:09;102390.72;;;16.86;100.00
45403;BME280;47427;51.976;5.326;2023-10-08T06:06:34;102388.13;;;16.87;100.00
45403;BME280;47427;51.976;5.326;2023-10-08T06:09:39;102385.28;;;16.80;100.00
45403;BME280;47427;51.976;5.326;2023-10-08T06:12:45;102384.84;;;16.64;100.00
45403;BME280;47427;51.976;5.326;2023-10-08T06:15:52;102380.38;;;16.62;100.00
45403;BME280;47427;51.976;5.326;2023-10-08T06:18:58;102383.56;;;16.49;100.00
45403;BME280;47427;51.976;5.326;2023-10-08T06:22:02;102410.47;;;16.32;100.00
45403;BME280;47427;51.976;5.326;2023-10-08T06:25:05;102430.63;;;16.27;100.00
45403;BME280;47427;51.976;5.326;2023-10-08T06:28:27;102448.00;;;16.17;100.00
45403;BME280;47427;51.976;5.326;2023-10-08T06:31:29;102447.88;;;16.13;100.00
45403;BME280;47427;51.976;5.326;2023-10-08T06:34:37;102457.63;;;16.14;100.00
45403;BME280;47427;51.976;5.326;2023-10-08T06:37:41;102455.44;;;15.99;100.00
45403;BME280;47427;51.976;5.326;2023-10-08T06:40:43;102467.56;;;15.92;100.00
45403;BME280;47427;51.976;5.326;2023-10-08T06:43:49;102474.31;;;15.81;100.00
45403;BME280;47427;51.976;5.326;2023-10-08T06:46:56;102463.88;;;15.86;100.00
45403;BME280;47427;51.976;5.326;2023-10-08T06:49:59;102452.31;;;15.84;100.00
45403;BME280;47427;51.976;5.326;2023-10-08T06:53:05;102455.13;;;15.90;100.00
45403;BME280;47427;51.976;5.326;2023-10-08T06:56:17;102469.31;;;15.90;100.00
45403;BME280;47427;51.976;5.326;2023-10-08T06:59:22;102477.81;;;15.80;100.00
45403;BME280;47427;51.976;5.326;2023-10-08T07:02:24;102481.94;;;15.72;100.00
45403;BME280;47427;51.976;5.326;2023-10-08T07:05:29;102466.69;;;15.65;100.00
45403;BME280;47427;51.976;5.326;2023-10-08T07:08:33;102479.69;;;15.57;100.00
45403;BME280;47427;51.976;5.326;2023-10-08T07:11:37;102485.88;;;15.57;100.00
45403;BME280;47427;51.976;5.326;2023-10-08T07:14:46;102486.97;;;15.64;100.00
45403;BME280;47427;51.976;5.326;2023-10-08T07:17:48;102500.91;;;15.58;100.00
45403;BME280;47427;51.976;5.326;2023-10-08T07:20:54;102484.06;;;15.56;100.00
45403;BME280;47427;51.976;5.326;2023-10-08T07:23:59;102490.09;;;15.78;100.00
45403;BME280;47427;51.976;5.326;2023-10-08T07:27:02;102493.69;;;15.80;100.00
45403;BME280;47427;51.976;5.326;2023-10-08T07:30:10;102481.09;;;16.01;100.00
45403;BME280;47427;51.976;5.326;2023-10-08T07:33:13;102485.09;;;16.17;100.00
45403;BME280;47427;51.976;5.326;2023-10-08T07:36:20;102488.81;;;16.24;100.00
45403;BME280;47427;51.976;5.326;2023-10-08T07:39:23;102499.13;;;16.45;100.00
45403;BME280;47427;51.976;5.326;2023-10-08T07:42:34;102496.25;;;16.37;100.00
45403;BME280;47427;51.976;5.326;2023-10-08T07:45:37;102504.56;;;16.50;100.00
45403;BME280;47427;51.976;5.326;2023-10-08T07:48:40;102499.22;;;16.48;100.00
45403;BME280;47427;51.976;5.326;2023-10-08T07:51:45;102504.34;;;16.42;100.00
45403;BME280;47427;51.976;5.326;2023-10-08T07:54:53;102509.78;;;16.16;100.00
45403;BME280;47427;51.976;5.326;2023-10-08T07:57:56;102511.59;;;15.89;100.00
45403;BME280;47427;51.976;5.326;2023-10-08T08:01:11;102525.06;;;15.96;100.00
45403;BME280;47427;51.976;5.326;2023-10-08T08:04:16;102531.56;;;16.08;100.00
45403;BME280;47427;51.976;5.326;2023-10-08T08:07:24;102545.03;;;16.14;100.00
45403;BME280;47427;51.976;5.326;2023-10-08T08:10:28;102560.47;;;16.00;100.00
45403;BME280;47427;51.976;5.326;2023-10-08T08:13:35;102560.44;;;15.98;100.00
45403;BME280;47427;51.976;5.326;2023-10-08T08:16:38;102565.19;;;16.10;100.00
45403;BME280;47427;51.976;5.326;2023-10-08T08:19:46;102573.13;;;16.10;100.00
45403;BME280;47427;51.976;5.326;2023-10-08T08:22:48;102569.69;;;16.13;100.00
45403;BME280;47427;51.976;5.326;2023-10-08T08:25:55;102563.22;;;16.32;100.00
45403;BME280;47427;51.976;5.326;2023-10-08T08:29:09;102558.00;;;16.65;100.00
45403;BME280;47427;51.976;5.326;2023-10-08T08:32:17;102569.19;;;16.85;99.32
45403;BME280;47427;51.976;5.326;2023-10-08T08:35:22;102567.50;;;16.87;98.25
45403;BME280;47427;51.976;5.326;2023-10-08T08:38:25;102567.97;;;16.74;97.17
45403;BME280;47427;51.976;5.326;2023-10-08T08:41:28;102572.59;;;16.81;97.04
45403;BME280;47427;51.976;5.326;2023-10-08T08:44:35;102581.09;;;16.69;96.97
45403;BME280;47427;51.976;5.326;2023-10-08T08:47:41;102585.59;;;16.72;97.62
45403;BME280;47427;51.976;5.326;2023-10-08T08:50:44;102599.53;;;16.95;97.18
45403;BME280;47427;51.976;5.326;2023-10-08T08:53:48;102604.09;;;17.00;96.38
45403;BME280;47427;51.976;5.326;2023-10-08T08:56:52;102594.44;;;17.02;96.02
45403;BME280;47427;51.976;5.326;2023-10-08T08:59:58;102603.97;;;16.96;95.70
45403;BME280;47427;51.976;5.326;2023-10-08T09:03:01;102596.34;;;17.08;95.27
45403;BME280;47427;51.976;5.326;2023-10-08T09:06:07;102603.69;;;17.17;94.64
45403;BME280;47427;51.976;5.326;2023-10-08T09:09:10;102595.19;;;16.98;94.14
45403;BME280;47427;51.976;5.326;2023-10-08T09:12:26;102593.53;;;16.41;94.84
45403;BME280;47427;51.976;5.326;2023-10-08T09:15:28;102588.97;;;16.36;96.42
45403;BME280;47427;51.976;5.326;2023-10-08T09:18:31;102590.63;;;16.62;96.28
45403;BME280;47427;51.976;5.326;2023-10-08T09:21:35;102587.72;;;16.83;95.20
45403;BME280;47427;51.976;5.326;2023-10-08T09:24:40;102578.19;;;17.23;94.23
45403;BME280;47427;51.976;5.326;2023-10-08T09:27:42;102576.94;;;17.44;92.80
45403;BME280;47427;51.976;5.326;2023-10-08T09:30:49;102568.78;;;17.36;91.44
45403;BME280;47427;51.976;5.326;2023-10-08T09:33:56;102575.63;;;17.61;90.41
45403;BME280;47427;51.976;5.326;2023-10-08T09:37:00;102578.13;;;17.90;89.65
45403;BME280;47427;51.976;5.326;2023-10-08T09:40:05;102586.72;;;18.16;88.79
45403;BME280;47427;51.976;5.326;2023-10-08T09:43:12;102582.50;;;18.27;88.23
45403;BME280;47427;51.976;5.326;2023-10-08T09:46:19;102579.91;;;18.30;88.20
45403;BME280;47427;51.976;5.326;2023-10-08T09:49:41;102584.66;;;18.04;88.33
45403;BME280;47427;51.976;5.326;2023-10-08T09:53:12;102574.81;;;18.00;88.74
45403;BME280;47427;51.976;5.326;2023-10-08T09:56:20;102576.91;;;18.13;89.86
45403;BME280;47427;51.976;5.326;2023-10-08T09:59:23;102572.19;;;18.02;88.94
45403;BME280;47427;51.976;5.326;2023-10-08T10:02:27;102588.06;;;17.64;90.43
45403;BME280;47427;51.976;5.326;2023-10-08T10:05:31;102590.50;;;17.21;92.46
45403;BME280;47427;51.976;5.326;2023-10-08T10:08:34;102589.69;;;17.24;nan
45403;BME280;47427;51.976;5.326;2023-10-08T10:11:38;102584.28;;;17.52;92.78
45403;BME280;47427;51.976;5.326;2023-10-08T10:14:46;102572.72;;;17.50;93.03
45403;BME280;47427;51.976;5.326;2023-10-08T10:17:48;102566.88;;;17.30;93.75
45403;BME280;47427;51.976;5.326;2023-10-08T10:24:36;102595.50;;;17.42;93.27
45403;BME280;47427;51.976;5.326;2023-10-08T10:27:38;102592.63;;;17.01;95.49
45403;BME280;47427;51.976;5.326;2023-10-08T10:30:42;102597.91;;;17.01;95.92
45403;BME280;47427;51.976;5.326;2023-10-08T10:33:45;102599.97;;;17.11;96.21
45403;BME280;47427;51.976;5.326;2023-10-08T10:36:51;102600.91;;;17.14;95.88
45403;BME280;47427;51.976;5.326;2023-10-08T10:39:57;102614.50;;;17.26;95.57
45403;BME280;47427;51.976;5.326;2023-10-08T10:43:02;102597.44;;;17.49;95.88
45403;BME280;47427;51.976;5.326;2023-10-08T10:46:09;102607.03;;;17.77;94.10
45403;BME280;47427;51.976;5.326;2023-10-08T10:49:32;102600.13;;;17.84;94.03
45403;BME280;47427;51.976;5.326;2023-10-08T10:52:38;102597.97;;;18.06;92.27
45403;BME280;47427;51.976;5.326;2023-10-08T10:55:56;102597.50;;;17.86;91.77
45403;BME280;47427;51.976;5.326;2023-10-08T10:59:02;102592.75;;;18.09;91.68
45403;BME280;47427;51.976;5.326;2023-10-08T11:02:21;102585.44;;;18.00;90.34
45403;BME280;47427;51.976;5.326;2023-10-08T11:05:36;102584.06;;;18.17;89.75
45403;BME280;47427;51.976;5.326;2023-10-08T11:08:39;102580.97;;;18.37;88.93
45403;BME280;47427;51.976;5.326;2023-10-08T11:11:48;102574.25;;;18.13;88.17
45403;BME280;47427;51.976;5.326;2023-10-08T11:14:57;102583.50;;;18.32;88.65
45403;BME280;47427;51.976;5.326;2023-10-08T11:17:58;102583.78;;;18.86;85.70
45403;BME280;47427;51.976;5.326;2023-10-08T11:21:10;102582.59;;;18.71;85.26
45403;BME280;47427;51.976;5.326;2023-10-08T11:24:31;102590.31;;;18.59;85.97
45403;BME280;47427;51.976;5.326;2023-10-08T11:27:39;102587.34;;;18.45;86.64
45403;BME280;47427;51.976;5.326;2023-10-08T11:30:41;102588.22;;;18.46;86.29
45403;BME280;47427;51.976;5.326;2023-10-08T11:33:45;102586.91;;;18.25;86.85
45403;BME280;47427;51.976;5.326;2023-10-08T11:36:57;102571.78;;;18.23;86.71
45403;BME280;47427;51.976;5.326;2023-10-08T11:40:01;102573.97;;;18.03;86.32
45403;BME280;47427;51.976;5.326;2023-10-08T11:43:15;102569.94;;;18.18;86.33
45403;BME280;47427;51.976;5.326;2023-10-08T11:46:17;102566.47;;;18.63;84.31
45403;BME280;47427;51.976;5.326;2023-10-08T11:49:19;102558.97;;;19.35;81.92
45403;BME280;47427;51.976;5.326;2023-10-08T11:52:27;102552.44;;;20.29;79.50
45403;BME280;47427;51.976;5.326;2023-10-08T11:55:33;102552.50;;;21.07;75.00
45403;BME280;47427;51.976;5.326;2023-10-08T11:58:41;102555.72;;;20.75;73.67
45403;BME280;47427;51.976;5.326;2023-10-08T12:01:47;102554.94;;;20.17;73.82
45403;BME280;47427;51.976;5.326;2023-10-08T12:04:50;102543.34;;;19.55;76.24
45403;BME280;47427;51.976;5.326;2023-10-08T12:07:54;102547.91;;;19.64;76.93
45403;BME280;47427;51.976;5.326;2023-10-08T12:10:59;102547.59;;;20.64;76.44
45403;BME280;47427;51.976;5.326;2023-10-08T12:14:02;102557.44;;;21.58;71.49
45403;BME280;47427;51.976;5.326;2023-10-08T12:17:05;102542.00;;;21.25;70.76
45403;BME280;47427;51.976;5.326;2023-10-08T12:20:14;102538.53;;;21.35;71.73
45403;BME280;47427;51.976;5.326;2023-10-08T12:23:26;102529.81;;;21.55;70.24
45403;BME280;47427;51.976;5.326;2023-10-08T12:26:29;102521.34;;;22.28;69.30
45403;BME280;47427;51.976;5.326;2023-10-08T12:29:33;102528.56;;;22.50;66.55
45403;BME280;47427;51.976;5.326;2023-10-08T12:33:00;102524.13;;;22.43;66.27
45403;BME280;47427;51.976;5.326;2023-10-08T12:36:03;102518.56;;;22.10;65.91
45403;BME280;47427;51.976;5.326;2023-10-08T12:39:15;102488.97;;;21.74;68.29
45403;BME280;47427;51.976;5.326;2023-10-08T12:42:18;102476.78;;;20.98;69.43
45403;BME280;47427;51.976;5.326;2023-10-08T12:45:23;102475.38;;;20.49;70.84
45403;BME280;47427;51.976;5.326;2023-10-08T12:48:27;102478.28;;;20.70;73.13
45403;BME280;47427;51.976;5.326;2023-10-08T12:51:30;102485.69;;;20.97;73.16
45403;BME280;47427;51.976;5.326;2023-10-08T12:54:36;102493.97;;;21.28;70.17
45403;BME280;47427;51.976;5.326;2023-10-08T12:57:48;102471.16;;;20.68;71.22
45403;BME280;47427;51.976;5.326;2023-10-08T13:00:54;102482.47;;;20.47;73.68
45403;BME280;47427;51.976;5.326;2023-10-08T13:04:00;102468.03;;;19.64;75.75
45403;BME280;47427;51.976;5.326;2023-10-08T13:07:03;102473.50;;;19.70;76.30
45403;BME280;47427;51.976;5.326;2023-10-08T13:10:06;102464.38;;;20.23;75.03
45403;BME280;47427;51.976;5.326;2023-10-08T13:13:08;102465.97;;;20.05;75.40
45403;BME280;47427;51.976;5.326;2023-10-08T13:16:13;102479.78;;;19.77;75.45
45403;BME280;47427;51.976;5.326;2023-10-08T13:19:16;102468.84;;;19.58;76.54
45403;BME280;47427;51.976;5.326;2023-10-08T13:22:40;102463.03;;;19.27;78.66
45403;BME280;47427;51.976;5.326;2023-10-08T13:25:44;102465.53;;;19.18;78.40
45403;BME280;47427;51.976;5.326;2023-10-08T13:28:49;102457.72;;;19.27;78.85
45403;BME280;47427;51.976;5.326;2023-10-08T13:31:52;102458.03;;;19.49;78.81
45403;BME280;47427;51.976;5.326;2023-10-08T13:34:58;102457.09;;;20.06;77.33
45403;BME280;47427;51.976;5.326;2023-10-08T13:38:00;102446.50;;;20.12;76.10
45403;BME280;47427;51.976;5.326;2023-10-08T13:41:09;102447.72;;;19.67;76.05
45403;BME280;47427;51.976;5.326;2023-10-08T13:44:17;102446.28;;;19.94;76.35
45403;BME280;47427;51.976;5.326;2023-10-08T13:47:21;102438.84;;;20.39;76.56
45403;BME280;47427;51.976;5.326;2023-10-08T13:50:26;102444.50;;;20.66;74.15
45403;BME280;47427;51.976;5.326;2023-10-08T13:53:33;102450.41;;;20.42;75.55
45403;BME280;47427;51.976;5.326;2023-10-08T13:56:38;102445.75;;;20.21;76.81
45403;BME280;47427;51.976;5.326;2023-10-08T13:59:41;102451.38;;;20.49;75.77
45403;BME280;47427;51.976;5.326;2023-10-08T14:02:43;102458.44;;;20.45;75.75
45403;BME280;47427;51.976;5.326;2023-10-08T14:05:53;102444.03;;;20.26;76.42
45403;BME280;47427;51.976;5.326;2023-10-08T14:08:57;102455.72;;;20.39;76.10
45403;BME280;47427;51.976;5.326;2023-10-08T14:12:00;102435.00;;;20.13;76.46
45403;BME280;47427;51.976;5.326;2023-10-08T14:15:02;102429.34;;;19.89;77.78
45403;BME280;47427;51.976;5.326;2023-10-08T14:18:10;102426.41;;;19.69;78.99
45403;BME280;47427;51.976;5.326;2023-10-08T14:21:14;102421.28;;;19.83;78.69
45403;BME280;47427;51.976;5.326;2023-10-08T14:24:17;102426.84;;;20.01;79.38
45403;BME280;47427;51.976;5.326;2023-10-08T14:27:20;102433.00;;;19.96;78.96
45403;BME280;47427;51.976;5.326;2023-10-08T14:30:26;102428.97;;;19.63;79.66
45403;BME280;47427;51.976;5.326;2023-10-08T14:33:32;102421.44;;;19.34;81.24
45403;BME280;47427;51.976;5.326;2023-10-08T14:36:49;102413.63;;;19.46;81.16
45403;BME280;47427;51.976;5.326;2023-10-08T14:40:10;102411.94;;;19.50;82.01
45403;BME280;47427;51.976;5.326;2023-10-08T14:43:31;102403.00;;;19.48;82.19
45403;BME280;47427;51.976;5.326;2023-10-08T14:46:35;102375.91;;;19.14;82.75
45403;BME280;47427;51.976;5.326;2023-10-08T14:49:39;102385.97;;;19.35;83.35
45403;BME280;47427;51.976;5.326;2023-10-08T14:52:44;102389.94;;;19.66;82.59
45403;BME280;47427;51.976;5.326;2023-10-08T14:55:47;102378.56;;;19.75;81.58
45403;BME280;47427;51.976;5.326;2023-10-08T14:58:51;102384.94;;;19.89;81.93
45403;BME280;47427;51.976;5.326;2023-10-08T15:01:55;102373.28;;;19.80;81.58
45403;BME280;47427;51.976;5.326;2023-10-08T15:04:58;102378.63;;;19.81;82.08
45403;BME280;47427;51.976;5.326;2023-10-08T15:08:03;102380.59;;;19.98;81.95
45403;BME280;47427;51.976;5.326;2023-10-08T15:11:11;102382.06;;;20.50;81.17
45403;BME280;47427;51.976;5.326;2023-10-08T15:14:13;102378.59;;;20.56;79.72
45403;BME280;47427;51.976;5.326;2023-10-08T15:17:18;102374.88;;;20.43;79.26
45403;BME280;47427;51.976;5.326;2023-10-08T15:20:21;102375.72;;;20.41;80.80
45403;BME280;47427;51.976;5.326;2023-10-08T15:23:26;102373.66;;;20.12;80.22
45403;BME280;47427;51.976;5.326;2023-10-08T15:26:30;102370.97;;;20.09;80.69
45403;BME280;47427;51.976;5.326;2023-10-08T15:29:32;102375.50;;;20.16;80.80
45403;BME280;47427;51.976;5.326;2023-10-08T15:32:35;102376.31;;;20.12;81.23
45403;BME280;47427;51.976;5.326;2023-10-08T15:35:38;102374.31;;;19.92;81.97
45403;BME280;47427;51.976;5.326;2023-10-08T15:38:43;102371.75;;;19.99;81.65
45403;BME280;47427;51.976;5.326;2023-10-08T15:41:46;102365.03;;;19.61;82.53
45403;BME280;47427;51.976;5.326;2023-10-08T15:44:49;102377.69;;;19.15;84.43
45403;BME280;47427;51.976;5.326;2023-10-08T15:47:52;102375.28;;;18.76;86.26
45403;BME280;47427;51.976;5.326;2023-10-08T15:50:55;102364.28;;;18.57;87.42
45403;BME280;47427;51.976;5.326;2023-10-08T15:53:59;102361.59;;;18.54;87.99
45403;BME280;47427;51.976;5.326;2023-10-08T15:57:05;102363.50;;;18.61;88.19
45403;BME280;47427;51.976;5.326;2023-10-08T16:00:07;102359.09;;;18.63;88.51
45403;BME280;47427;51.976;5.326;2023-10-08T16:03:10;102354.72;;;18.67;88.99
45403;BME280;47427;51.976;5.326;2023-10-08T16:06:14;102356.38;;;18.59;89.35
45403;BME280;47427;51.976;5.326;2023-10-08T16:09:17;102342.72;;;18.39;90.01
45403;BME280;47427;51.976;5.326;2023-10-08T16:12:19;102350.41;;;18.25;90.87